sensor_id;sensor_type;location;lat;lon;timestamp;P1;durP1;ratioP1;P2;durP2;ratioP2
21661;SDS011;10992;48.170;8.596;2023-04-06T00:00:54;16.75;;;12.27;;
21661;SDS011;10992;48.170;8.596;2023-04-06T00:03:21;18.00;;;13.25;;
21661;SDS011;10992;48.170;8.596;2023-04-06T00:05:49;15.90;;;12.52;;
21661;SDS011;10992;48.170;8.596;2023-04-06T00:08:16;14.90;;;11.45;;
21661;SDS011;10992;48.170;8.596;2023-04-06T00:10:43;18.95;;;13.15;;
21661;SDS011;10992;48.170;8.596;2023-04-06T00:13:10;19.42;;;13.55;;
21661;SDS011;10992;48.170;8.596;2023-04-06T00:15:36;17.85;;;11.57;;
21661;SDS011;10992;48.170;8.596;2023-04-06T00:18:03;17.63;;;11.90;;
21661;SDS011;10992;48.170;8.596;2023-04-06T00:20:30;15.30;;;10.65;;
21661;SDS011;10992;48.170;8.596;2023-04-06T00:22:57;16.92;;;12.10;;
21661;SDS011;10992;48.170;8.596;2023-04-06T00:25:24;17.75;;;12.45;;
21661;SDS011;10992;48.170;8.596;2023-04-06T00:27:51;16.65;;;11.55;;
21661;SDS011;10992;48.170;8.596;2023-04-06T00:30:18;16.13;;;11.07;;
21661;SDS011;10992;48.170;8.596;2023-04-06T00:32:45;15.65;;;11.13;;
21661;SDS011;10992;48.170;8.596;2023-04-06T00:35:12;17.75;;;13.10;;
21661;SDS011;10992;48.170;8.596;2023-04-06T00:37:39;15.30;;;11.73;;
21661;SDS011;10992;48.170;8.596;2023-04-06T00:40:06;16.80;;;12.57;;
21661;SDS011;10992;48.170;8.596;2023-04-06T00:42:34;17.75;;;11.77;;
21661;SDS011;10992;48.170;8.596;2023-04-06T00:45:02;15.85;;;11.60;;
21661;SDS011;10992;48.170;8.596;2023-04-06T00:47:29;17.88;;;12.02;;
21661;SDS011;10992;48.170;8.596;2023-04-06T00:49:56;17.40;;;12.15;;
21661;SDS011;10992;48.170;8.596;2023-04-06T00:52:23;17.42;;;12.57;;
21661;SDS011;10992;48.170;8.596;2023-04-06T00:54:52;18.95;;;12.27;;
21661;SDS011;10992;48.170;8.596;2023-04-06T00:57:20;18.02;;;11.73;;
21661;SDS011;10992;48.170;8.596;2023-04-06T00:59:53;19.27;;;11.60;;
21661;SDS011;10992;48.170;8.596;2023-04-06T01:02:20;18.25;;;11.27;;
21661;SDS011;10992;48.170;8.596;2023-04-06T01:04:50;13.93;;;10.73;;
21661;SDS011;10992;48.170;8.596;2023-04-06T01:07:35;14.57;;;11.32;;
21661;SDS011;10992;48.170;8.596;2023-04-06T01:10:25;14.10;;;10.75;;
21661;SDS011;10992;48.170;8.596;2023-04-06T01:13:00;15.35;;;11.25;;
21661;SDS011;10992;48.170;8.596;2023-04-06T01:15:50;15.20;;;11.38;;
21661;SDS011;10992;48.170;8.596;2023-04-06T01:18:26;17.35;;;11.38;;
21661;SDS011;10992;48.170;8.596;2023-04-06T01:21:05;19.00;;;11.15;;
21661;SDS011;10992;48.170;8.596;2023-04-06T01:23:35;18.90;;;11.13;;
21661;SDS011;10992;48.170;8.596;2023-04-06T01:26:02;15.23;;;10.63;;
21661;SDS011;10992;48.170;8.596;2023-04-06T01:28:30;16.45;;;11.40;;
21661;SDS011;10992;48.170;8.596;2023-04-06T01:31:04;16.73;;;11.50;;
21661;SDS011;10992;48.170;8.596;2023-04-06T01:33:46;16.42;;;11.27;;
21661;SDS011;10992;48.170;8.596;2023-04-06T01:36:17;16.20;;;11.57;;
21661;SDS011;10992;48.170;8.596;2023-04-06T01:38:50;15.73;;;11.35;;
21661;SDS011;10992;48.170;8.596;2023-04-06T01:41:22;17.42;;;11.75;;
21661;SDS011;10992;48.170;8.596;2023-04-06T01:43:51;14.80;;;11.30;;
21661;SDS011;10992;48.170;8.596;2023-04-06T01:46:24;16.33;;;11.60;;
21661;SDS011;10992;48.170;8.596;2023-04-06T01:48:52;17.58;;;12.10;;
21661;SDS011;10992;48.170;8.596;2023-04-06T01:51:36;15.85;;;11.90;;
21661;SDS011;10992;48.170;8.596;2023-04-06T01:54:06;15.88;;;11.25;;
21661;SDS011;10992;48.170;8.596;2023-04-06T01:56:52;15.63;;;11.32;;
21661;SDS011;10992;48.170;8.596;2023-04-06T01:59:46;16.30;;;11.65;;
21661;SDS011;10992;48.170;8.596;2023-04-06T02:02:24;15.27;;;11.43;;
21661;SDS011;10992;48.170;8.596;2023-04-06T02:04:59;16.38;;;12.10;;
21661;SDS011;10992;48.170;8.596;2023-04-06T02:07:27;14.82;;;11.38;;
21661;SDS011;10992;48.170;8.596;2023-04-06T02:09:55;16.33;;;11.55;;
21661;SDS011;10992;48.170;8.596;2023-04-06T02:12:31;16.45;;;11.43;;
21661;SDS011;10992;48.170;8.596;2023-04-06T02:14:58;17.85;;;12.15;;
21661;SDS011;10992;48.170;8.596;2023-04-06T02:17:26;17.52;;;11.75;;
21661;SDS011;10992;48.170;8.596;2023-04-06T02:19:53;17.30;;;12.45;;
21661;SDS011;10992;48.170;8.596;2023-04-06T02:22:20;17.95;;;12.98;;
21661;SDS011;10992;48.170;8.596;2023-04-06T02:24:47;17.27;;;12.80;;
21661;SDS011;10992;48.170;8.596;2023-04-06T02:27:14;17.38;;;13.25;;
21661;SDS011;10992;48.170;8.596;2023-04-06T02:29:45;17.85;;;13.10;;
21661;SDS011;10992;48.170;8.596;2023-04-06T02:32:17;17.77;;;13.02;;
21661;SDS011;10992;48.170;8.596;2023-04-06T02:34:45;16.88;;;11.93;;
21661;SDS011;10992;48.170;8.596;2023-04-06T02:37:13;19.30;;;12.73;;
21661;SDS011;10992;48.170;8.596;2023-04-06T02:39:40;15.57;;;11.90;;
21661;SDS011;10992;48.170;8.596;2023-04-06T02:42:08;19.08;;;12.07;;
21661;SDS011;10992;48.170;8.596;2023-04-06T02:44:35;17.33;;;11.82;;
21661;SDS011;10992;48.170;8.596;2023-04-06T02:47:02;15.98;;;11.90;;
21661;SDS011;10992;48.170;8.596;2023-04-06T02:49:29;18.05;;;12.20;;
21661;SDS011;10992;48.170;8.596;2023-04-06T02:51:58;17.83;;;11.18;;
21661;SDS011;10992;48.170;8.596;2023-04-06T02:54:30;17.52;;;12.00;;
21661;SDS011;10992;48.170;8.596;2023-04-06T02:57:02;15.57;;;11.48;;
21661;SDS011;10992;48.170;8.596;2023-04-06T02:59:42;17.70;;;12.13;;
21661;SDS011;10992;48.170;8.596;2023-04-06T03:02:15;15.80;;;11.52;;
21661;SDS011;10992;48.170;8.596;2023-04-06T03:04:43;17.02;;;11.77;;
21661;SDS011;10992;48.170;8.596;2023-04-06T03:07:20;15.80;;;11.25;;
21661;SDS011;10992;48.170;8.596;2023-04-06T03:09:48;15.48;;;10.43;;
21661;SDS011;10992;48.170;8.596;2023-04-06T03:12:16;17.02;;;10.95;;
21661;SDS011;10992;48.170;8.596;2023-04-06T03:15:07;12.93;;;10.38;;
21661;SDS011;10992;48.170;8.596;2023-04-06T03:17:35;16.63;;;10.65;;
21661;SDS011;10992;48.170;8.596;2023-04-06T03:20:08;13.05;;;10.57;;
21661;SDS011;10992;48.170;8.596;2023-04-06T03:22:35;12.70;;;10.45;;
21661;SDS011;10992;48.170;8.596;2023-04-06T03:25:03;19.48;;;11.15;;
21661;SDS011;10992;48.170;8.596;2023-04-06T03:27:31;17.20;;;11.10;;
21661;SDS011;10992;48.170;8.596;2023-04-06T03:30:00;16.13;;;11.63;;
21661;SDS011;10992;48.170;8.596;2023-04-06T03:32:32;16.33;;;11.23;;
21661;SDS011;10992;48.170;8.596;2023-04-06T03:35:00;14.85;;;11.23;;
21661;SDS011;10992;48.170;8.596;2023-04-06T03:37:27;15.60;;;11.68;;
21661;SDS011;10992;48.170;8.596;2023-04-06T03:39:59;18.40;;;11.70;;
21661;SDS011;10992;48.170;8.596;2023-04-06T03:42:27;15.60;;;11.18;;
21661;SDS011;10992;48.170;8.596;2023-04-06T03:45:02;16.75;;;11.30;;
21661;SDS011;10992;48.170;8.596;2023-04-06T03:47:30;18.67;;;11.02;;
21661;SDS011;10992;48.170;8.596;2023-04-06T03:50:02;16.27;;;11.57;;
21661;SDS011;10992;48.170;8.596;2023-04-06T03:52:31;17.40;;;11.35;;
21661;SDS011;10992;48.170;8.596;2023-04-06T03:54:58;12.55;;;10.15;;
21661;SDS011;10992;48.170;8.596;2023-04-06T03:57:25;12.77;;;9.48;;
21661;SDS011;10992;48.170;8.596;2023-04-06T03:59:53;15.77;;;10.57;;
21661;SDS011;10992;48.170;8.596;2023-04-06T04:02:20;13.60;;;10.23;;
21661;SDS011;10992;48.170;8.596;2023-04-06T04:04:46;14.13;;;10.80;;
21661;SDS011;10992;48.170;8.596;2023-04-06T04:07:13;13.25;;;10.90;;
21661;SDS011;10992;48.170;8.596;2023-04-06T04:09:40;15.30;;;10.55;;
21661;SDS011;10992;48.170;8.596;2023-04-06T04:12:07;13.55;;;10.05;;
21661;SDS011;10992;48.170;8.596;2023-04-06T04:14:34;14.80;;;9.88;;
21661;SDS011;10992;48.170;8.596;2023-04-06T04:17:01;14.45;;;10.30;;
21661;SDS011;10992;48.170;8.596;2023-04-06T04:19:28;13.93;;;10.00;;
21661;SDS011;10992;48.170;8.596;2023-04-06T04:21:56;12.15;;;10.02;;
21661;SDS011;10992;48.170;8.596;2023-04-06T04:24:30;16.52;;;9.77;;
21661;SDS011;10992;48.170;8.596;2023-04-06T04:26:58;16.55;;;10.75;;
21661;SDS011;10992;48.170;8.596;2023-04-06T04:29:28;15.48;;;9.75;;
21661;SDS011;10992;48.170;8.596;2023-04-06T04:32:00;13.95;;;9.85;;
21661;SDS011;10992;48.170;8.596;2023-04-06T04:34:27;13.13;;;9.95;;
21661;SDS011;10992;48.170;8.596;2023-04-06T04:36:54;15.68;;;10.48;;
21661;SDS011;10992;48.170;8.596;2023-04-06T04:39:40;12.65;;;10.00;;
21661;SDS011;10992;48.170;8.596;2023-04-06T04:42:07;13.60;;;9.55;;
21661;SDS011;10992;48.170;8.596;2023-04-06T04:44:38;14.55;;;10.18;;
21661;SDS011;10992;48.170;8.596;2023-04-06T04:47:05;13.10;;;10.10;;
21661;SDS011;10992;48.170;8.596;2023-04-06T04:49:40;19.05;;;10.00;;
21661;SDS011;10992;48.170;8.596;2023-04-06T04:52:09;11.63;;;9.10;;
21661;SDS011;10992;48.170;8.596;2023-04-06T04:54:47;12.27;;;8.63;;
21661;SDS011;10992;48.170;8.596;2023-04-06T04:57:21;13.25;;;9.55;;
21661;SDS011;10992;48.170;8.596;2023-04-06T04:59:48;18.33;;;10.00;;
21661;SDS011;10992;48.170;8.596;2023-04-06T05:02:18;14.77;;;10.10;;
21661;SDS011;10992;48.170;8.596;2023-04-06T05:05:07;12.68;;;8.88;;
21661;SDS011;10992;48.170;8.596;2023-04-06T05:07:35;14.05;;;9.30;;
21661;SDS011;10992;48.170;8.596;2023-04-06T05:10:05;15.90;;;9.05;;
21661;SDS011;10992;48.170;8.596;2023-04-06T05:12:38;10.77;;;8.52;;
21661;SDS011;10992;48.170;8.596;2023-04-06T05:15:07;13.70;;;9.25;;
21661;SDS011;10992;48.170;8.596;2023-04-06T05:17:36;12.10;;;9.05;;
21661;SDS011;10992;48.170;8.596;2023-04-06T05:20:05;13.20;;;9.23;;
21661;SDS011;10992;48.170;8.596;2023-04-06T05:22:37;13.95;;;9.55;;
21661;SDS011;10992;48.170;8.596;2023-04-06T05:25:07;11.07;;;8.30;;
21661;SDS011;10992;48.170;8.596;2023-04-06T05:27:35;16.20;;;8.65;;
21661;SDS011;10992;48.170;8.596;2023-04-06T05:30:07;13.10;;;7.90;;
21661;SDS011;10992;48.170;8.596;2023-04-06T05:32:39;11.13;;;7.43;;
21661;SDS011;10992;48.170;8.596;2023-04-06T05:35:06;11.40;;;8.10;;
21661;SDS011;10992;48.170;8.596;2023-04-06T05:37:33;10.18;;;6.88;;
21661;SDS011;10992;48.170;8.596;2023-04-06T05:40:01;10.30;;;6.78;;
21661;SDS011;10992;48.170;8.596;2023-04-06T05:42:39;9.50;;;7.07;;
21661;SDS011;10992;48.170;8.596;2023-04-06T05:45:08;12.48;;;8.20;;
21661;SDS011;10992;48.170;8.596;2023-04-06T05:47:38;14.50;;;10.13;;
21661;SDS011;10992;48.170;8.596;2023-04-06T05:50:17;13.38;;;10.05;;
21661;SDS011;10992;48.170;8.596;2023-04-06T05:52:44;11.55;;;7.97;;
21661;SDS011;10992;48.170;8.596;2023-04-06T05:55:15;9.18;;;7.15;;
21661;SDS011;10992;48.170;8.596;2023-04-06T05:57:47;10.13;;;6.65;;
21661;SDS011;10992;48.170;8.596;2023-04-06T06:00:16;9.85;;;6.65;;
21661;SDS011;10992;48.170;8.596;2023-04-06T06:02:53;7.93;;;6.38;;
21661;SDS011;10992;48.170;8.596;2023-04-06T06:05:24;9.20;;;6.22;;
21661;SDS011;10992;48.170;8.596;2023-04-06T06:07:52;9.20;;;6.32;;
21661;SDS011;10992;48.170;8.596;2023-04-06T06:10:20;8.10;;;6.30;;
21661;SDS011;10992;48.170;8.596;2023-04-06T06:12:46;10.52;;;6.35;;
21661;SDS011;10992;48.170;8.596;2023-04-06T06:15:13;7.75;;;6.50;;
21661;SDS011;10992;48.170;8.596;2023-04-06T06:17:44;8.90;;;6.57;;
21661;SDS011;10992;48.170;8.596;2023-04-06T06:20:11;11.57;;;6.43;;
21661;SDS011;10992;48.170;8.596;2023-04-06T06:22:38;8.73;;;5.60;;
21661;SDS011;10992;48.170;8.596;2023-04-06T06:25:09;8.88;;;5.45;;
21661;SDS011;10992;48.170;8.596;2023-04-06T06:27:36;7.45;;;5.75;;
21661;SDS011;10992;48.170;8.596;2023-04-06T06:30:04;7.60;;;5.40;;
21661;SDS011;10992;48.170;8.596;2023-04-06T06:32:34;9.65;;;6.07;;
21661;SDS011;10992;48.170;8.596;2023-04-06T06:35:01;8.85;;;5.55;;
21661;SDS011;10992;48.170;8.596;2023-04-06T06:37:31;7.88;;;5.55;;
21661;SDS011;10992;48.170;8.596;2023-04-06T06:40:00;8.05;;;5.40;;
21661;SDS011;10992;48.170;8.596;2023-04-06T06:42:30;7.63;;;5.13;;
21661;SDS011;10992;48.170;8.596;2023-04-06T06:45:17;6.15;;;5.13;;
21661;SDS011;10992;48.170;8.596;2023-04-06T06:47:44;7.18;;;5.05;;
21661;SDS011;10992;48.170;8.596;2023-04-06T06:50:12;7.00;;;5.07;;
21661;SDS011;10992;48.170;8.596;2023-04-06T06:52:39;6.43;;;4.88;;
21661;SDS011;10992;48.170;8.596;2023-04-06T06:55:08;9.75;;;5.00;;
21661;SDS011;10992;48.170;8.596;2023-04-06T06:57:36;7.40;;;5.10;;
21661;SDS011;10992;48.170;8.596;2023-04-06T07:00:06;7.00;;;5.38;;
21661;SDS011;10992;48.170;8.596;2023-04-06T07:02:34;6.57;;;4.78;;
21661;SDS011;10992;48.170;8.596;2023-04-06T07:05:02;7.68;;;5.00;;
21661;SDS011;10992;48.170;8.596;2023-04-06T07:07:41;5.97;;;4.93;;
21661;SDS011;10992;48.170;8.596;2023-04-06T07:10:08;6.43;;;5.03;;
21661;SDS011;10992;48.170;8.596;2023-04-06T07:12:37;8.80;;;5.20;;
21661;SDS011;10992;48.170;8.596;2023-04-06T07:15:04;8.32;;;5.28;;
21661;SDS011;10992;48.170;8.596;2023-04-06T07:17:32;7.68;;;5.80;;
21661;SDS011;10992;48.170;8.596;2023-04-06T07:19:59;9.23;;;5.80;;
21661;SDS011;10992;48.170;8.596;2023-04-06T07:22:27;8.32;;;5.88;;
21661;SDS011;10992;48.170;8.596;2023-04-06T07:24:53;7.57;;;5.47;;
21661;SDS011;10992;48.170;8.596;2023-04-06T07:27:21;7.38;;;5.97;;
21661;SDS011;10992;48.170;8.596;2023-04-06T07:29:48;10.05;;;5.80;;
21661;SDS011;10992;48.170;8.596;2023-04-06T07:32:15;9.55;;;5.53;;
21661;SDS011;10992;48.170;8.596;2023-04-06T07:34:42;6.50;;;5.50;;
21661;SDS011;10992;48.170;8.596;2023-04-06T07:37:11;8.45;;;5.35;;
21661;SDS011;10992;48.170;8.596;2023-04-06T07:39:39;6.75;;;5.25;;
21661;SDS011;10992;48.170;8.596;2023-04-06T07:42:07;6.65;;;5.13;;
21661;SDS011;10992;48.170;8.596;2023-04-06T07:44:33;7.03;;;5.10;;
21661;SDS011;10992;48.170;8.596;2023-04-06T07:47:00;7.55;;;5.80;;
21661;SDS011;10992;48.170;8.596;2023-04-06T07:49:27;6.07;;;4.93;;
21661;SDS011;10992;48.170;8.596;2023-04-06T07:51:55;8.23;;;5.47;;
21661;SDS011;10992;48.170;8.596;2023-04-06T07:54:22;9.35;;;5.50;;
21661;SDS011;10992;48.170;8.596;2023-04-06T07:56:49;7.97;;;5.63;;
21661;SDS011;10992;48.170;8.596;2023-04-06T07:59:16;6.45;;;4.63;;
21661;SDS011;10992;48.170;8.596;2023-04-06T08:01:43;7.68;;;4.72;;
21661;SDS011;10992;48.170;8.596;2023-04-06T08:04:10;7.95;;;5.30;;
21661;SDS011;10992;48.170;8.596;2023-04-06T08:06:38;8.90;;;5.22;;
21661;SDS011;10992;48.170;8.596;2023-04-06T08:09:05;7.00;;;4.88;;
21661;SDS011;10992;48.170;8.596;2023-04-06T08:11:32;6.00;;;5.03;;
21661;SDS011;10992;48.170;8.596;2023-04-06T08:13:59;7.07;;;5.43;;
21661;SDS011;10992;48.170;8.596;2023-04-06T08:16:26;7.47;;;5.15;;
21661;SDS011;10992;48.170;8.596;2023-04-06T08:18:53;7.10;;;4.90;;
21661;SDS011;10992;48.170;8.596;2023-04-06T08:21:19;6.90;;;5.50;;
21661;SDS011;10992;48.170;8.596;2023-04-06T08:23:46;7.50;;;4.50;;
21661;SDS011;10992;48.170;8.596;2023-04-06T08:26:13;8.88;;;5.13;;
21661;SDS011;10992;48.170;8.596;2023-04-06T08:28:40;6.00;;;4.75;;
21661;SDS011;10992;48.170;8.596;2023-04-06T08:31:10;6.75;;;5.15;;
21661;SDS011;10992;48.170;8.596;2023-04-06T08:33:36;11.18;;;5.40;;
21661;SDS011;10992;48.170;8.596;2023-04-06T08:36:12;7.50;;;5.00;;
21661;SDS011;10992;48.170;8.596;2023-04-06T08:38:40;7.13;;;5.20;;
21661;SDS011;10992;48.170;8.596;2023-04-06T08:41:09;6.47;;;4.85;;
21661;SDS011;10992;48.170;8.596;2023-04-06T08:43:41;8.13;;;4.90;;
21661;SDS011;10992;48.170;8.596;2023-04-06T08:46:25;7.63;;;5.63;;
21661;SDS011;10992;48.170;8.596;2023-04-06T08:48:56;6.60;;;5.20;;
21661;SDS011;10992;48.170;8.596;2023-04-06T08:51:24;7.10;;;4.85;;
21661;SDS011;10992;48.170;8.596;2023-04-06T08:53:55;6.72;;;5.30;;
21661;SDS011;10992;48.170;8.596;2023-04-06T08:56:24;6.13;;;5.07;;
21661;SDS011;10992;48.170;8.596;2023-04-06T08:58:53;6.25;;;5.30;;
21661;SDS011;10992;48.170;8.596;2023-04-06T09:01:22;7.65;;;5.63;;
21661;SDS011;10992;48.170;8.596;2023-04-06T09:03:55;8.25;;;5.35;;
21661;SDS011;10992;48.170;8.596;2023-04-06T09:06:24;7.55;;;5.32;;
21661;SDS011;10992;48.170;8.596;2023-04-06T09:08:53;7.45;;;4.80;;
21661;SDS011;10992;48.170;8.596;2023-04-06T09:11:21;6.18;;;4.80;;
21661;SDS011;10992;48.170;8.596;2023-04-06T09:13:55;8.32;;;4.90;;
21661;SDS011;10992;48.170;8.596;2023-04-06T09:16:24;6.97;;;5.10;;
21661;SDS011;10992;48.170;8.596;2023-04-06T09:18:52;8.98;;;5.28;;
21661;SDS011;10992;48.170;8.596;2023-04-06T09:21:19;7.22;;;4.57;;
21661;SDS011;10992;48.170;8.596;2023-04-06T09:24:00;7.65;;;5.40;;
21661;SDS011;10992;48.170;8.596;2023-04-06T09:26:28;7.20;;;5.10;;
21661;SDS011;10992;48.170;8.596;2023-04-06T09:28:58;6.55;;;5.38;;
21661;SDS011;10992;48.170;8.596;2023-04-06T09:31:28;6.63;;;5.22;;
21661;SDS011;10992;48.170;8.596;2023-04-06T09:33:59;6.05;;;5.15;;
21661;SDS011;10992;48.170;8.596;2023-04-06T09:36:30;5.90;;;5.18;;
21661;SDS011;10992;48.170;8.596;2023-04-06T09:39:02;7.07;;;4.82;;
21661;SDS011;10992;48.170;8.596;2023-04-06T09:41:31;6.15;;;4.78;;
21661;SDS011;10992;48.170;8.596;2023-04-06T09:44:04;6.43;;;5.10;;
21661;SDS011;10992;48.170;8.596;2023-04-06T09:46:34;7.25;;;4.78;;
21661;SDS011;10992;48.170;8.596;2023-04-06T09:49:26;6.72;;;5.57;;
21661;SDS011;10992;48.170;8.596;2023-04-06T09:52:02;7.30;;;4.47;;
21661;SDS011;10992;48.170;8.596;2023-04-06T09:54:32;8.38;;;5.28;;
21661;SDS011;10992;48.170;8.596;2023-04-06T09:57:11;9.70;;;5.50;;
21661;SDS011;10992;48.170;8.596;2023-04-06T09:59:54;7.60;;;4.80;;
21661;SDS011;10992;48.170;8.596;2023-04-06T10:05:30;7.68;;;5.72;;
21661;SDS011;10992;48.170;8.596;2023-04-06T10:08:17;5.18;;;4.30;;
21661;SDS011;10992;48.170;8.596;2023-04-06T10:10:45;5.97;;;4.70;;
21661;SDS011;10992;48.170;8.596;2023-04-06T10:13:13;8.27;;;4.55;;
21661;SDS011;10992;48.170;8.596;2023-04-06T10:15:40;8.77;;;5.13;;
21661;SDS011;10992;48.170;8.596;2023-04-06T10:18:09;10.13;;;5.38;;
21661;SDS011;10992;48.170;8.596;2023-04-06T10:23:24;5.53;;;4.78;;
21661;SDS011;10992;48.170;8.596;2023-04-06T10:25:59;8.30;;;5.68;;
21661;SDS011;10992;48.170;8.596;2023-04-06T10:28:31;9.27;;;5.20;;
21661;SDS011;10992;48.170;8.596;2023-04-06T10:31:05;7.70;;;5.38;;
21661;SDS011;10992;48.170;8.596;2023-04-06T10:33:32;6.15;;;5.22;;
21661;SDS011;10992;48.170;8.596;2023-04-06T10:36:12;6.13;;;4.63;;
21661;SDS011;10992;48.170;8.596;2023-04-06T10:38:41;9.73;;;5.75;;
21661;SDS011;10992;48.170;8.596;2023-04-06T10:41:09;5.78;;;4.90;;
21661;SDS011;10992;48.170;8.596;2023-04-06T10:43:38;7.07;;;5.05;;
21661;SDS011;10992;48.170;8.596;2023-04-06T10:46:07;6.45;;;5.50;;
21661;SDS011;10992;48.170;8.596;2023-04-06T10:51:07;6.70;;;4.53;;
21661;SDS011;10992;48.170;8.596;2023-04-06T10:53:38;7.00;;;5.28;;
21661;SDS011;10992;48.170;8.596;2023-04-06T10:56:11;6.40;;;5.20;;
21661;SDS011;10992;48.170;8.596;2023-04-06T10:58:46;7.70;;;5.55;;
21661;SDS011;10992;48.170;8.596;2023-04-06T11:01:17;9.25;;;5.65;;
21661;SDS011;10992;48.170;8.596;2023-04-06T11:03:46;7.03;;;5.60;;
21661;SDS011;10992;48.170;8.596;2023-04-06T11:06:22;7.82;;;5.47;;
21661;SDS011;10992;48.170;8.596;2023-04-06T11:08:53;6.22;;;5.18;;
21661;SDS011;10992;48.170;8.596;2023-04-06T11:11:22;7.65;;;5.55;;
21661;SDS011;10992;48.170;8.596;2023-04-06T11:13:54;9.15;;;5.90;;
21661;SDS011;10992;48.170;8.596;2023-04-06T11:16:21;9.20;;;6.10;;
21661;SDS011;10992;48.170;8.596;2023-04-06T11:18:53;7.53;;;5.55;;
21661;SDS011;10992;48.170;8.596;2023-04-06T11:22:05;6.57;;;5.88;;
21661;SDS011;10992;48.170;8.596;2023-04-06T11:26:56;7.32;;;5.40;;
21661;SDS011;10992;48.170;8.596;2023-04-06T11:29:29;7.18;;;5.35;;
21661;SDS011;10992;48.170;8.596;2023-04-06T11:31:58;6.43;;;5.65;;
21661;SDS011;10992;48.170;8.596;2023-04-06T11:34:30;6.20;;;5.10;;
21661;SDS011;10992;48.170;8.596;2023-04-06T11:37:03;7.35;;;5.15;;
21661;SDS011;10992;48.170;8.596;2023-04-06T11:39:38;8.65;;;5.85;;
21661;SDS011;10992;48.170;8.596;2023-04-06T11:42:09;6.57;;;5.43;;
21661;SDS011;10992;48.170;8.596;2023-04-06T11:44:37;7.95;;;5.43;;
21661;SDS011;10992;48.170;8.596;2023-04-06T11:47:09;6.82;;;5.22;;
21661;SDS011;10992;48.170;8.596;2023-04-06T11:49:37;7.15;;;5.53;;
21661;SDS011;10992;48.170;8.596;2023-04-06T11:52:16;6.45;;;5.45;;
21661;SDS011;10992;48.170;8.596;2023-04-06T11:54:46;7.07;;;5.18;;
21661;SDS011;10992;48.170;8.596;2023-04-06T11:57:14;7.75;;;4.90;;
21661;SDS011;10992;48.170;8.596;2023-04-06T11:59:43;6.10;;;5.13;;
21661;SDS011;10992;48.170;8.596;2023-04-06T12:02:11;6.03;;;4.53;;
21661;SDS011;10992;48.170;8.596;2023-04-06T12:04:38;6.93;;;5.10;;
21661;SDS011;10992;48.170;8.596;2023-04-06T12:07:05;6.63;;;4.85;;
21661;SDS011;10992;48.170;8.596;2023-04-06T12:09:32;6.90;;;4.50;;
21661;SDS011;10992;48.170;8.596;2023-04-06T12:12:03;5.55;;;4.72;;
21661;SDS011;10992;48.170;8.596;2023-04-06T12:14:30;5.38;;;4.30;;
21661;SDS011;10992;48.170;8.596;2023-04-06T12:17:00;5.60;;;4.32;;
21661;SDS011;10992;48.170;8.596;2023-04-06T12:19:27;5.60;;;4.70;;
21661;SDS011;10992;48.170;8.596;2023-04-06T12:21:56;10.00;;;5.07;;
21661;SDS011;10992;48.170;8.596;2023-04-06T12:24:23;6.07;;;4.72;;
21661;SDS011;10992;48.170;8.596;2023-04-06T12:26:51;7.45;;;4.50;;
21661;SDS011;10992;48.170;8.596;2023-04-06T12:29:32;6.10;;;5.13;;
21661;SDS011;10992;48.170;8.596;2023-04-06T12:31:59;5.78;;;5.00;;
21661;SDS011;10992;48.170;8.596;2023-04-06T12:34:27;6.60;;;4.65;;
21661;SDS011;10992;48.170;8.596;2023-04-06T12:36:54;6.25;;;4.82;;
21661;SDS011;10992;48.170;8.596;2023-04-06T12:39:22;6.90;;;4.93;;
21661;SDS011;10992;48.170;8.596;2023-04-06T12:41:50;7.35;;;4.93;;
21661;SDS011;10992;48.170;8.596;2023-04-06T12:44:17;6.60;;;5.00;;
21661;SDS011;10992;48.170;8.596;2023-04-06T12:46:44;8.73;;;5.13;;
21661;SDS011;10992;48.170;8.596;2023-04-06T12:49:11;6.20;;;5.00;;
21661;SDS011;10992;48.170;8.596;2023-04-06T12:51:38;8.32;;;5.10;;
21661;SDS011;10992;48.170;8.596;2023-04-06T12:54:05;9.68;;;5.18;;
21661;SDS011;10992;48.170;8.596;2023-04-06T12:56:32;6.32;;;5.13;;
21661;SDS011;10992;48.170;8.596;2023-04-06T12:58:59;6.72;;;4.80;;
21661;SDS011;10992;48.170;8.596;2023-04-06T13:01:27;6.35;;;4.70;;
21661;SDS011;10992;48.170;8.596;2023-04-06T13:03:55;6.70;;;4.50;;
21661;SDS011;10992;48.170;8.596;2023-04-06T13:06:23;6.18;;;4.82;;
21661;SDS011;10992;48.170;8.596;2023-04-06T13:08:54;5.28;;;4.18;;
21661;SDS011;10992;48.170;8.596;2023-04-06T13:11:21;5.97;;;4.90;;
21661;SDS011;10992;48.170;8.596;2023-04-06T13:13:53;8.38;;;4.68;;
21661;SDS011;10992;48.170;8.596;2023-04-06T13:16:20;6.70;;;4.60;;
21661;SDS011;10992;48.170;8.596;2023-04-06T13:18:47;5.80;;;4.32;;
21661;SDS011;10992;48.170;8.596;2023-04-06T13:21:14;7.03;;;4.80;;
21661;SDS011;10992;48.170;8.596;2023-04-06T13:23:43;6.93;;;5.07;;
21661;SDS011;10992;48.170;8.596;2023-04-06T13:26:10;8.75;;;5.93;;
21661;SDS011;10992;48.170;8.596;2023-04-06T13:28:37;8.90;;;5.55;;
21661;SDS011;10992;48.170;8.596;2023-04-06T13:31:05;8.32;;;4.93;;
21661;SDS011;10992;48.170;8.596;2023-04-06T13:33:32;7.60;;;4.78;;
21661;SDS011;10992;48.170;8.596;2023-04-06T13:36:00;7.78;;;4.93;;
21661;SDS011;10992;48.170;8.596;2023-04-06T13:38:27;8.07;;;5.07;;
21661;SDS011;10992;48.170;8.596;2023-04-06T13:40:55;6.63;;;4.90;;
21661;SDS011;10992;48.170;8.596;2023-04-06T13:43:22;6.85;;;4.68;;
21661;SDS011;10992;48.170;8.596;2023-04-06T13:45:53;7.45;;;4.38;;
21661;SDS011;10992;48.170;8.596;2023-04-06T13:48:24;6.88;;;4.90;;
21661;SDS011;10992;48.170;8.596;2023-04-06T13:50:52;6.80;;;4.35;;
21661;SDS011;10992;48.170;8.596;2023-04-06T13:53:19;5.70;;;3.90;;
21661;SDS011;10992;48.170;8.596;2023-04-06T13:55:55;7.57;;;4.43;;
21661;SDS011;10992;48.170;8.596;2023-04-06T13:58:22;7.63;;;4.28;;
21661;SDS011;10992;48.170;8.596;2023-04-06T14:00:49;6.88;;;4.35;;
21661;SDS011;10992;48.170;8.596;2023-04-06T14:03:17;5.97;;;4.10;;
21661;SDS011;10992;48.170;8.596;2023-04-06T14:05:45;6.10;;;4.30;;
21661;SDS011;10992;48.170;8.596;2023-04-06T14:08:12;5.65;;;4.05;;
21661;SDS011;10992;48.170;8.596;2023-04-06T14:10:42;9.70;;;4.75;;
21661;SDS011;10992;48.170;8.596;2023-04-06T14:13:09;8.05;;;4.40;;
21661;SDS011;10992;48.170;8.596;2023-04-06T14:15:36;6.20;;;4.45;;
21661;SDS011;10992;48.170;8.596;2023-04-06T14:18:03;6.07;;;4.38;;
21661;SDS011;10992;48.170;8.596;2023-04-06T14:20:31;6.38;;;4.18;;
21661;SDS011;10992;48.170;8.596;2023-04-06T14:23:02;6.85;;;4.35;;
21661;SDS011;10992;48.170;8.596;2023-04-06T14:25:29;6.13;;;4.35;;
21661;SDS011;10992;48.170;8.596;2023-04-06T14:27:58;7.20;;;4.20;;
21661;SDS011;10992;48.170;8.596;2023-04-06T14:30:25;5.20;;;3.47;;
21661;SDS011;10992;48.170;8.596;2023-04-06T14:32:56;6.72;;;3.55;;
21661;SDS011;10992;48.170;8.596;2023-04-06T14:35:24;6.15;;;3.47;;
21661;SDS011;10992;48.170;8.596;2023-04-06T14:37:51;4.57;;;3.28;;
21661;SDS011;10992;48.170;8.596;2023-04-06T14:40:18;4.80;;;3.00;;
21661;SDS011;10992;48.170;8.596;2023-04-06T14:42:45;4.53;;;3.42;;
21661;SDS011;10992;48.170;8.596;2023-04-06T14:45:12;4.10;;;2.67;;
21661;SDS011;10992;48.170;8.596;2023-04-06T14:47:39;3.75;;;2.72;;
21661;SDS011;10992;48.170;8.596;2023-04-06T14:50:06;4.63;;;3.00;;
21661;SDS011;10992;48.170;8.596;2023-04-06T14:52:33;5.20;;;3.50;;
21661;SDS011;10992;48.170;8.596;2023-04-06T14:55:01;4.57;;;3.00;;
21661;SDS011;10992;48.170;8.596;2023-04-06T14:57:27;4.07;;;2.85;;
21661;SDS011;10992;48.170;8.596;2023-04-06T14:59:54;4.53;;;3.22;;
21661;SDS011;10992;48.170;8.596;2023-04-06T15:02:21;5.00;;;3.13;;
21661;SDS011;10992;48.170;8.596;2023-04-06T15:04:49;4.97;;;3.10;;